Anna-barbara — D5AD4 — position and weather

sailwx.info

Track history (hours):
 
Tides and Currents Weather Stations Pressure Air Temp Water Temp Dewpoint Dewpoint Depression Visibility Wind Speed Wind Dir Waves Ship Positions

Anna-barbara

Last reported at 2018-Feb-21 14:22 UTC. Time now 2018-Feb-25 20:07 UTC.
Position N 36°16' E 014°48'.

Length 190 m; draft 12.8 m.

Type: Ship. MMSI: 636092302.

Date/timePositionNaut miles runAvg speedWind from/ knotsBaromVisibWave heightAir tempDewpointWater temp
2018-Feb-21 14:22N 36°16' E 014°48'512.4
2018-Feb-21 13:58N 36°17' E 014°42'612.3
2018-Feb-21 13:30N 36°19' E 014°35'612.0
2018-Feb-21 13:00N 36°21' E 014°28'612.1
2018-Feb-21 12:30N 36°23' E 014°21'612.3
2018-Feb-21 12:00N 36°25' E 014°13'612.5
2018-Feb-21 11:30N 36°27' E 014°06'  
2018-Feb-14 12:17N 35°55' W 024°12'413.0
2018-Feb-14 12:00N 35°55' W 024°17'612.6
2018-Feb-14 11:31N 35°55' W 024°25'612.5
2018-Feb-14 11:00N 35°55' W 024°32'612.6
2018-Feb-14 10:30N 35°55' W 024°40'612.6
2018-Feb-14 10:00N 35°55' W 024°48'712.5
2018-Feb-14 09:29N 35°55' W 024°56'612.6
2018-Feb-14 09:00N 35°55' W 025°03'612.6
2018-Feb-14 08:30N 35°55' W 025°11'612.3
2018-Feb-14 08:00N 35°55' W 025°19'612.0
2018-Feb-14 07:30N 35°55' W 025°26'612.3
2018-Feb-14 07:00N 35°55' W 025°34'612.2
2018-Feb-14 06:30N 35°55' W 025°41'612.2
2018-Feb-14 06:00N 35°55' W 025°49'712.2
2018-Feb-14 05:28N 35°55' W 025°57'1212.1
2018-Feb-14 04:29N 35°55' W 026°12'  
Track history (hours):
 
Tides and Currents Weather Stations Pressure Air Temp Water Temp Dewpoint Dewpoint Depression Visibility Wind Speed Wind Dir Waves Ship Positions

Anna-barbara

Last reported at 2018-Feb-21 14:22 UTC. Time now 2018-Feb-25 20:07 UTC.
Position N 36°16' E 014°48'.

Length 190 m; draft 12.8 m.

Type: Ship. MMSI: 636092302.

Date/timePositionNaut miles runAvg speedWind from/ knotsBaromVisibWave heightAir tempDewpointWater temp
2018-Feb-21 14:22N 36°16' E 014°48'512.4
2018-Feb-21 13:58N 36°17' E 014°42'612.3
2018-Feb-21 13:30N 36°19' E 014°35'612.0
2018-Feb-21 13:00N 36°21' E 014°28'612.1
2018-Feb-21 12:30N 36°23' E 014°21'612.3
2018-Feb-21 12:00N 36°25' E 014°13'612.5
2018-Feb-21 11:30N 36°27' E 014°06'  
2018-Feb-14 12:17N 35°55' W 024°12'413.0
2018-Feb-14 12:00N 35°55' W 024°17'612.6
2018-Feb-14 11:31N 35°55' W 024°25'612.5
2018-Feb-14 11:00N 35°55' W 024°32'612.6
2018-Feb-14 10:30N 35°55' W 024°40'612.6
2018-Feb-14 10:00N 35°55' W 024°48'712.5
2018-Feb-14 09:29N 35°55' W 024°56'612.6
2018-Feb-14 09:00N 35°55' W 025°03'612.6
2018-Feb-14 08:30N 35°55' W 025°11'612.3
2018-Feb-14 08:00N 35°55' W 025°19'612.0
2018-Feb-14 07:30N 35°55' W 025°26'612.3
2018-Feb-14 07:00N 35°55' W 025°34'612.2
2018-Feb-14 06:30N 35°55' W 025°41'612.2
2018-Feb-14 06:00N 35°55' W 025°49'712.2
2018-Feb-14 05:28N 35°55' W 025°57'1212.1
2018-Feb-14 04:29N 35°55' W 026°12'  

Dump ship's entire track history